createdAt,value
2022-09-16T00:00:59.342Z,85.62
2022-09-16T00:03:27.199Z,86.60
2022-09-16T00:05:55.366Z,86.17
2022-09-16T00:08:24.523Z,87.47
2022-09-16T00:10:52.694Z,87.71
2022-09-16T00:13:20.435Z,89.07
2022-09-16T00:15:50.983Z,88.80
2022-09-16T00:18:20.296Z,89.05
2022-09-16T00:20:49.752Z,89.61
2022-09-16T00:23:17.984Z,90.36
2022-09-16T00:25:52.491Z,90.18
2022-09-16T00:28:21.614Z,90.10
2022-09-16T00:30:49.883Z,90.49
2022-09-16T00:33:18.645Z,90.67
2022-09-16T00:35:46.854Z,91.32
2022-09-16T00:38:14.967Z,91.27
2022-09-16T00:40:48.054Z,89.40
2022-09-16T00:43:17.426Z,89.80
2022-09-16T00:45:47.726Z,88.79
2022-09-16T00:48:20.225Z,89.14
2022-09-16T00:50:51.685Z,89.46
2022-09-16T00:53:24.064Z,89.10
2022-09-16T00:55:55.966Z,88.07
2022-09-16T00:58:28.894Z,89.05
2022-09-16T01:00:56.930Z,90.74
2022-09-16T01:03:26.207Z,92.85
2022-09-16T01:05:54.188Z,91.66
2022-09-16T01:08:21.974Z,91.69
2022-09-16T01:10:49.666Z,92.50
2022-09-16T01:13:18.907Z,92.48
2022-09-16T01:15:56.579Z,93.95
2022-09-16T01:18:30.458Z,94.52
2022-09-16T01:21:35.289Z,95.05
2022-09-16T01:24:30.912Z,94.50
2022-09-16T01:27:17.292Z,92.41
2022-09-16T01:30:16.008Z,92.61
2022-09-16T01:32:58.682Z,93.50
2022-09-16T01:35:36.672Z,93.43
2022-09-16T01:38:13.810Z,92.90
2022-09-16T01:40:53.920Z,93.30
2022-09-16T01:43:25.814Z,93.31
2022-09-16T01:45:57.520Z,93.90
2022-09-16T01:48:35.286Z,93.25
2022-09-16T01:51:09.701Z,93.47
2022-09-16T01:53:40.345Z,92.27
2022-09-16T01:56:12.110Z,92.13
2022-09-16T01:58:44.525Z,93.48
2022-09-16T02:01:17.680Z,93.96
2022-09-16T02:03:53.401Z,94.34
2022-09-16T02:06:24.773Z,94.64
2022-09-16T02:08:57.862Z,94.94
2022-09-16T02:11:26.545Z,96.25
2022-09-16T02:13:58.896Z,94.93
2022-09-16T02:16:31.431Z,96.08
2022-09-16T02:19:06.656Z,94.93
2022-09-16T02:21:36.945Z,94.70
2022-09-16T02:24:11.054Z,95.82
2022-09-16T02:26:47.457Z,96.71
2022-09-16T02:29:20.530Z,97.86
2022-09-16T02:31:53.610Z,96.97
2022-09-16T02:34:29.720Z,96.50
2022-09-16T02:37:03.501Z,96.32
2022-09-16T02:39:36.194Z,97.98
2022-09-16T02:42:04.552Z,96.13
2022-09-16T02:44:34.234Z,96.41
2022-09-16T02:47:08.562Z,96.84
2022-09-16T02:49:42.128Z,97.86
2022-09-16T02:52:17.278Z,98.31
2022-09-16T02:54:51.176Z,100.00
2022-09-16T02:57:19.182Z,99.04
2022-09-16T02:59:47.150Z,100.00
2022-09-16T03:02:15.310Z,100.00
2022-09-16T03:04:44.455Z,100.00
2022-09-16T03:07:13.706Z,100.00
2022-09-16T03:09:44.933Z,100.00
2022-09-16T03:12:22.512Z,99.94
2022-09-16T03:15:19.528Z,100.00
2022-09-16T03:18:25.862Z,99.29
2022-09-16T03:21:01.195Z,100.00
2022-09-16T03:23:44.591Z,99.13
2022-09-16T03:26:19.827Z,100.00
2022-09-16T03:28:56.421Z,99.01
2022-09-16T03:31:30.079Z,99.64
2022-09-16T03:34:06.357Z,100.00
2022-09-16T03:36:41.299Z,100.00
2022-09-16T03:39:11.825Z,100.00
2022-09-16T03:41:40.113Z,100.00
2022-09-16T03:44:07.805Z,100.00
2022-09-16T03:46:35.939Z,100.00
2022-09-16T03:49:04.193Z,100.00
2022-09-16T03:51:31.921Z,100.00
2022-09-16T03:54:01.091Z,100.00
2022-09-16T03:56:28.785Z,100.00
2022-09-16T03:58:56.530Z,100.00
2022-09-16T04:01:24.300Z,100.00
2022-09-16T04:03:52.330Z,100.00
2022-09-16T04:06:20.128Z,100.00
2022-09-16T04:08:50.519Z,100.00
2022-09-16T04:11:19.591Z,100.00
2022-09-16T04:13:47.355Z,100.00
2022-09-16T04:16:21.098Z,100.00
2022-09-16T04:18:49.733Z,100.00
2022-09-16T04:21:18.318Z,100.00
2022-09-16T04:23:46.079Z,100.00
2022-09-16T04:26:13.757Z,100.00
2022-09-16T04:28:42.835Z,100.00
2022-09-16T04:31:12.877Z,100.00
2022-09-16T04:33:40.937Z,100.00
2022-09-16T04:36:12.143Z,100.00
2022-09-16T04:38:40.507Z,100.00
2022-09-16T04:41:10.146Z,100.00
2022-09-16T04:43:38.275Z,100.00
2022-09-16T04:46:08.040Z,100.00
2022-09-16T04:48:36.538Z,100.00
2022-09-16T04:51:06.709Z,100.00
2022-09-16T04:53:34.650Z,100.00
2022-09-16T04:56:07.704Z,100.00
2022-09-16T04:58:35.974Z,100.00
2022-09-16T05:01:12.671Z,98.86
2022-09-16T05:03:41.404Z,95.85
2022-09-16T05:06:11.221Z,97.16
2022-09-16T05:08:39.382Z,97.13
2022-09-16T05:11:08.583Z,99.82
2022-09-16T05:13:36.793Z,97.95
2022-09-16T05:16:06.705Z,99.57
2022-09-16T05:18:37.134Z,98.51
2022-09-16T05:21:07.412Z,99.75
2022-09-16T05:23:35.454Z,100.00
2022-09-16T05:26:05.177Z,99.93
2022-09-16T05:28:33.352Z,99.30
2022-09-16T05:31:15.051Z,96.40
2022-09-16T05:33:46.798Z,97.21
2022-09-16T05:36:16.726Z,97.59
2022-09-16T05:38:59.077Z,95.67
2022-09-16T05:41:32.758Z,95.78
2022-09-16T05:44:01.494Z,93.60
2022-09-16T05:46:29.994Z,94.27
2022-09-16T05:48:59.369Z,94.12
2022-09-16T05:51:27.091Z,93.73
2022-09-16T05:53:56.013Z,92.60
2022-09-16T05:56:25.728Z,91.43
2022-09-16T05:58:54.716Z,89.94
2022-09-16T06:01:24.450Z,89.42
2022-09-16T06:03:54.897Z,88.64
2022-09-16T06:06:26.046Z,89.04
2022-09-16T06:08:55.664Z,88.37
2022-09-16T06:11:24.234Z,88.01
2022-09-16T06:13:56.452Z,86.25
2022-09-16T06:16:25.774Z,87.37
2022-09-16T06:18:53.869Z,88.31
2022-09-16T06:21:22.876Z,87.06
2022-09-16T06:23:53.270Z,87.08
2022-09-16T06:26:24.245Z,85.67
2022-09-16T06:28:53.254Z,84.99
2022-09-16T06:31:23.270Z,86.70
2022-09-16T06:33:51.348Z,84.69
2022-09-16T06:36:20.830Z,85.66
2022-09-16T06:38:49.670Z,84.73
2022-09-16T06:41:20.331Z,83.39
2022-09-16T06:43:48.844Z,82.91
2022-09-16T06:46:18.648Z,84.00
2022-09-16T06:48:48.047Z,83.39
2022-09-16T06:51:18.519Z,82.42
2022-09-16T06:53:47.776Z,83.04
2022-09-16T06:56:17.446Z,81.98
2022-09-16T06:58:49.230Z,82.93
2022-09-16T07:01:19.194Z,80.46
2022-09-16T07:03:49.043Z,79.15
2022-09-16T07:06:17.765Z,80.61
2022-09-16T07:08:46.326Z,78.92
2022-09-16T07:11:15.967Z,77.53
2022-09-16T07:13:44.638Z,76.70
2022-09-16T07:16:15.697Z,77.98
2022-09-16T07:18:43.938Z,77.39
2022-09-16T07:21:14.342Z,77.59
2022-09-16T07:23:43.481Z,75.36
2022-09-16T07:26:12.534Z,75.49
2022-09-16T07:28:41.126Z,72.53
2022-09-16T07:31:10.673Z,73.10
2022-09-16T07:33:41.587Z,75.16
2022-09-16T07:36:11.215Z,75.57
2022-09-16T07:38:39.364Z,74.36
2022-09-16T07:41:08.194Z,74.77
2022-09-16T07:43:36.320Z,75.28
2022-09-16T07:46:04.557Z,75.93
2022-09-16T07:48:35.145Z,73.14
2022-09-16T07:51:07.321Z,73.10
2022-09-16T07:53:36.014Z,72.19
2022-09-16T07:56:04.641Z,72.96
2022-09-16T07:58:32.590Z,72.61
2022-09-16T08:01:04.555Z,72.45
2022-09-16T08:03:32.870Z,70.63
2022-09-16T08:06:01.629Z,71.41
2022-09-16T08:08:31.021Z,72.10
2022-09-16T08:11:00.350Z,69.43
2022-09-16T08:13:29.606Z,69.42
2022-09-16T08:16:03.425Z,69.79
2022-09-16T08:18:31.541Z,72.48
2022-09-16T08:21:01.284Z,71.11
2022-09-16T08:23:31.166Z,72.50
2022-09-16T08:25:59.522Z,73.91
2022-09-16T08:28:39.775Z,71.17
2022-09-16T08:31:17.281Z,73.45
2022-09-16T08:33:45.909Z,72.75
2022-09-16T08:36:17.016Z,73.77
2022-09-16T08:38:46.661Z,72.69
2022-09-16T08:41:32.034Z,74.91
2022-09-16T08:44:10.919Z,72.60
2022-09-16T08:46:47.269Z,74.94
2022-09-16T08:49:22.591Z,75.95
2022-09-16T08:51:50.694Z,72.10
2022-09-16T08:54:28.466Z,73.03
2022-09-16T08:57:04.754Z,74.06
2022-09-16T08:59:37.790Z,70.40
2022-09-16T09:02:26.654Z,69.97
2022-09-16T09:04:54.923Z,73.34
2022-09-16T09:07:30.917Z,70.80
2022-09-16T09:10:12.234Z,69.46
2022-09-16T09:12:46.750Z,68.06
2022-09-16T09:15:30.453Z,66.75
2022-09-16T09:18:13.939Z,68.79
2022-09-16T09:20:50.610Z,67.73
2022-09-16T09:23:38.622Z,66.44
2022-09-16T09:26:13.661Z,66.66
2022-09-16T09:29:05.085Z,66.89
2022-09-16T09:31:43.167Z,67.90
2022-09-16T09:34:24.723Z,66.00
2022-09-16T09:37:18.241Z,65.20
2022-09-16T09:39:57.641Z,66.44
2022-09-16T09:42:30.790Z,64.50
2022-09-16T09:45:04.708Z,64.90
2022-09-16T09:47:37.959Z,65.17
2022-09-16T09:50:14.734Z,62.25
2022-09-16T09:52:46.806Z,64.24
2022-09-16T09:55:17.544Z,61.36
2022-09-16T09:58:07.061Z,60.64
2022-09-16T10:00:34.797Z,60.73
2022-09-16T10:03:06.373Z,62.47
2022-09-16T10:05:34.460Z,62.53
2022-09-16T10:08:13.124Z,60.12
2022-09-16T10:10:50.257Z,63.21
2022-09-16T10:13:20.475Z,61.88
2022-09-16T10:15:53.280Z,62.05
2022-09-16T10:18:27.227Z,61.81
2022-09-16T10:21:02.167Z,61.64
2022-09-16T10:23:30.548Z,57.90
2022-09-16T10:26:23.671Z,57.73
2022-09-16T10:29:01.923Z,57.03
2022-09-16T10:31:37.665Z,55.74
2022-09-16T10:34:15.133Z,54.72
2022-09-16T10:36:42.801Z,55.68
2022-09-16T10:39:24.398Z,56.21
2022-09-16T10:41:52.141Z,54.67
2022-09-16T10:44:26.142Z,56.77
2022-09-16T10:46:56.633Z,55.07
2022-09-16T10:49:30.673Z,55.31
2022-09-16T10:52:09.261Z,54.89
2022-09-16T10:54:36.973Z,57.13
2022-09-16T10:57:04.712Z,55.69
2022-09-16T10:59:33.797Z,56.25
2022-09-16T11:02:10.239Z,55.81
2022-09-16T11:04:50.888Z,54.51
2022-09-16T11:07:28.529Z,53.40
2022-09-16T11:10:03.117Z,54.31
2022-09-16T11:12:46.194Z,54.83
2022-09-16T11:15:25.879Z,53.58
2022-09-16T11:18:15.288Z,54.57
2022-09-16T11:20:58.171Z,54.45
2022-09-16T11:23:39.189Z,54.37
2022-09-16T11:26:16.567Z,53.90
2022-09-16T11:29:17.011Z,53.27
2022-09-16T11:31:55.206Z,50.85
2022-09-16T11:34:33.478Z,50.57
2022-09-16T11:37:13.541Z,49.73
2022-09-16T11:40:02.137Z,50.43
2022-09-16T11:42:36.100Z,52.16
2022-09-16T11:45:21.412Z,51.73
2022-09-16T11:48:07.185Z,51.56
2022-09-16T11:50:45.798Z,52.24
2022-09-16T11:53:32.856Z,52.18
2022-09-16T11:56:05.466Z,50.37
2022-09-16T11:58:39.056Z,50.84
2022-09-16T12:01:33.297Z,51.54
2022-09-16T12:04:09.332Z,49.94
2022-09-16T12:06:43.147Z,51.26
2022-09-16T12:09:15.110Z,51.90
2022-09-16T12:11:46.601Z,52.29
2022-09-16T12:14:19.769Z,50.99
2022-09-16T12:16:49.371Z,51.25
2022-09-16T12:19:23.764Z,50.88
2022-09-16T12:21:57.936Z,50.47
2022-09-16T12:24:33.918Z,51.50
2022-09-16T12:27:07.070Z,51.35
2022-09-16T12:29:39.495Z,51.69
2022-09-16T12:32:12.606Z,50.48
2022-09-16T12:34:45.277Z,51.04
2022-09-16T12:37:24.899Z,52.55
2022-09-16T12:39:53.903Z,51.50
2022-09-16T12:42:58.037Z,51.40
2022-09-16T12:45:52.054Z,52.44
2022-09-16T12:48:51.356Z,52.25
2022-09-16T12:51:37.662Z,54.44
2022-09-16T12:54:40.928Z,54.15
2022-09-16T12:57:31.509Z,51.63
2022-09-16T13:00:21.501Z,51.30
2022-09-16T13:02:53.167Z,53.21
2022-09-16T13:05:33.040Z,52.91
2022-09-16T13:08:06.662Z,52.83
2022-09-16T13:10:54.922Z,51.00
2022-09-16T13:13:32.394Z,51.12
2022-09-16T13:16:02.017Z,51.95
2022-09-16T13:18:41.961Z,52.71
2022-09-16T13:21:22.751Z,51.46
2022-09-16T13:24:00.109Z,50.59
2022-09-16T13:26:39.596Z,48.62
2022-09-16T13:29:25.934Z,49.82
2022-09-16T13:31:53.811Z,51.45
2022-09-16T13:34:22.040Z,51.09
2022-09-16T13:36:50.074Z,52.12
2022-09-16T13:39:31.293Z,52.65
2022-09-16T13:42:11.481Z,49.47
2022-09-16T13:44:43.189Z,48.59
2022-09-16T13:47:17.016Z,48.52
2022-09-16T13:49:49.859Z,48.30
2022-09-16T13:52:21.922Z,48.02
2022-09-16T13:55:10.084Z,47.46
2022-09-16T13:57:52.806Z,48.86
2022-09-16T14:00:22.934Z,47.48
2022-09-16T14:03:18.327Z,48.92
2022-09-16T14:06:05.791Z,51.23
2022-09-16T14:08:42.614Z,51.76
2022-09-16T14:11:19.329Z,51.32
2022-09-16T14:13:51.593Z,52.38
2022-09-16T14:16:24.056Z,53.21
2022-09-16T14:19:00.620Z,52.39
2022-09-16T14:21:28.342Z,53.06
2022-09-16T14:23:56.135Z,51.78
2022-09-16T14:26:25.622Z,52.24
2022-09-16T14:29:04.017Z,51.28
2022-09-16T14:31:33.667Z,52.51
2022-09-16T14:34:06.668Z,52.57
2022-09-16T14:36:38.792Z,52.52
2022-09-16T14:39:12.973Z,52.77
2022-09-16T14:41:53.646Z,50.61
2022-09-16T14:44:27.605Z,51.20
2022-09-16T14:47:07.461Z,52.50
2022-09-16T14:49:38.989Z,53.29
2022-09-16T14:52:17.278Z,55.68
2022-09-16T14:54:45.612Z,56.54
2022-09-16T14:57:20.569Z,56.89
2022-09-16T14:59:48.758Z,58.26
2022-09-16T15:02:20.542Z,56.91
2022-09-16T15:04:53.766Z,56.99
2022-09-16T15:07:23.282Z,56.84
2022-09-16T15:09:55.553Z,55.55
2022-09-16T15:12:29.457Z,54.59
2022-09-16T15:14:57.868Z,53.75
2022-09-16T15:17:28.966Z,53.56
2022-09-16T15:19:59.835Z,53.91
2022-09-16T15:22:28.622Z,54.78
2022-09-16T15:24:59.363Z,55.06
2022-09-16T15:27:32.225Z,55.93
2022-09-16T15:30:05.461Z,55.61
2022-09-16T15:32:33.318Z,55.80
2022-09-16T15:35:11.151Z,56.26
2022-09-16T15:37:39.027Z,55.79
2022-09-16T15:40:21.460Z,55.85
2022-09-16T15:43:03.450Z,53.77
2022-09-16T15:45:31.365Z,55.10
2022-09-16T15:48:02.413Z,53.68
2022-09-16T15:50:39.389Z,53.13
2022-09-16T15:53:11.294Z,53.31
2022-09-16T15:55:44.130Z,53.39
2022-09-16T15:58:16.992Z,53.32
2022-09-16T16:01:03.871Z,53.78
2022-09-16T16:03:36.441Z,53.72
2022-09-16T16:06:05.099Z,54.26
2022-09-16T16:08:42.493Z,53.67
2022-09-16T16:11:12.238Z,54.40
2022-09-16T16:13:41.816Z,56.20
2022-09-16T16:16:10.235Z,55.79
2022-09-16T16:18:39.341Z,55.93
2022-09-16T16:21:08.827Z,58.37
2022-09-16T16:23:37.542Z,59.85
2022-09-16T16:26:06.368Z,61.21
2022-09-16T16:28:34.561Z,60.88
2022-09-16T16:31:11.520Z,61.41
2022-09-16T16:33:43.961Z,61.54
2022-09-16T16:36:12.805Z,62.77
2022-09-16T16:38:40.613Z,63.68
2022-09-16T16:41:09.166Z,63.95
2022-09-16T16:43:36.937Z,63.05
2022-09-16T16:46:05.146Z,62.30
2022-09-16T16:48:34.230Z,61.64
2022-09-16T16:51:04.652Z,62.28
2022-09-16T16:53:33.266Z,61.58
2022-09-16T16:56:05.653Z,62.44
2022-09-16T16:58:35.949Z,63.42
2022-09-16T17:01:10.392Z,63.41
2022-09-16T17:03:39.918Z,61.75
2022-09-16T17:06:08.442Z,62.40
2022-09-16T17:08:36.681Z,64.54
2022-09-16T17:11:10.075Z,64.19
2022-09-16T17:13:38.218Z,64.41
2022-09-16T17:16:06.710Z,63.80
2022-09-16T17:18:34.836Z,64.64
2022-09-16T17:21:05.224Z,64.92
2022-09-16T17:23:33.334Z,65.47
2022-09-16T17:26:01.670Z,63.93
2022-09-16T17:28:29.766Z,63.58
2022-09-16T17:30:57.677Z,63.45
2022-09-16T17:33:26.206Z,63.14
2022-09-16T17:36:01.872Z,62.40
2022-09-16T17:38:31.420Z,62.67
2022-09-16T17:41:04.053Z,61.55
2022-09-16T17:43:32.889Z,61.76
2022-09-16T17:46:01.064Z,61.65
2022-09-16T17:48:29.764Z,61.66
2022-09-16T17:50:58.228Z,61.64
2022-09-16T17:53:26.383Z,60.84
2022-09-16T17:56:02.989Z,61.51
2022-09-16T17:58:31.252Z,61.23
2022-09-16T18:01:05.993Z,62.18
2022-09-16T18:03:34.242Z,61.05
2022-09-16T18:06:07.418Z,61.10
2022-09-16T18:08:35.353Z,60.89
2022-09-16T18:11:05.466Z,61.15
2022-09-16T18:13:34.071Z,60.35
2022-09-16T18:16:07.063Z,60.61
2022-09-16T18:18:36.615Z,60.21
2022-09-16T18:21:05.909Z,59.72
2022-09-16T18:23:34.097Z,59.54
2022-09-16T18:26:06.877Z,60.01
2022-09-16T18:28:58.049Z,60.60
2022-09-16T18:31:25.125Z,59.88
2022-09-16T18:33:53.682Z,60.17
2022-09-16T18:36:25.102Z,60.05
2022-09-16T18:38:54.168Z,60.26
2022-09-16T18:41:25.326Z,61.21
2022-09-16T18:43:55.474Z,62.09
2022-09-16T18:46:26.712Z,61.42
2022-09-16T18:48:54.842Z,60.98
2022-09-16T18:51:24.256Z,62.08
2022-09-16T18:53:53.805Z,61.37
2022-09-16T18:56:24.974Z,62.29
2022-09-16T18:59:19.973Z,61.05
2022-09-16T19:01:43.611Z,61.69
2022-09-16T19:04:13.321Z,61.61
2022-09-16T19:06:43.582Z,61.54
2022-09-16T19:09:13.474Z,60.81
2022-09-16T19:11:42.937Z,61.43
2022-09-16T19:14:13.678Z,61.21
2022-09-16T19:16:42.726Z,61.65
2022-09-16T19:19:12.318Z,62.82
2022-09-16T19:21:40.868Z,62.71
2022-09-16T19:24:13.951Z,62.92
2022-09-16T19:26:44.438Z,62.14
2022-09-16T19:29:13.868Z,61.69
2022-09-16T19:31:43.317Z,61.58
2022-09-16T19:34:11.452Z,63.07
2022-09-16T19:36:40.482Z,62.65
2022-09-16T19:39:09.322Z,62.79
2022-09-16T19:41:40.002Z,62.89
2022-09-16T19:44:12.217Z,62.78
2022-09-16T19:46:42.514Z,63.27
2022-09-16T19:49:14.706Z,63.62
2022-09-16T19:51:42.965Z,64.92
2022-09-16T19:54:10.718Z,64.24
2022-09-16T19:56:38.550Z,64.31
2022-09-16T19:59:06.472Z,64.02
2022-09-16T20:01:36.973Z,64.60
2022-09-16T20:04:07.012Z,64.65
2022-09-16T20:06:37.096Z,64.81
2022-09-16T20:09:06.854Z,64.87
2022-09-16T20:11:37.139Z,65.67
2022-09-16T20:14:06.518Z,66.72
2022-09-16T20:16:38.736Z,66.00
2022-09-16T20:19:08.752Z,66.75
2022-09-16T20:21:37.754Z,67.29
2022-09-16T20:24:07.807Z,66.33
2022-09-16T20:26:36.725Z,68.01
2022-09-16T20:29:05.442Z,68.23
2022-09-16T20:31:37.213Z,68.62
2022-09-16T20:34:05.886Z,70.59
2022-09-16T20:36:38.088Z,70.72
2022-09-16T20:39:06.605Z,71.26
2022-09-16T20:41:37.489Z,70.76
2022-09-16T20:44:06.261Z,71.27
2022-09-16T20:46:36.870Z,72.58
2022-09-16T20:49:09.371Z,70.55
2022-09-16T20:51:37.722Z,70.48
2022-09-16T20:54:08.449Z,71.32
2022-09-16T20:56:39.099Z,70.33
2022-09-16T20:59:08.150Z,71.32
2022-09-16T21:01:38.866Z,73.01
2022-09-16T21:04:08.735Z,72.91
2022-09-16T21:06:37.269Z,72.03
2022-09-16T21:09:07.482Z,72.85
2022-09-16T21:11:35.627Z,72.78
2022-09-16T21:14:06.359Z,72.93
2022-09-16T21:16:36.029Z,74.53
2022-09-16T21:19:09.188Z,74.26
2022-09-16T21:21:38.846Z,73.17
2022-09-16T21:24:08.594Z,74.54
2022-09-16T21:26:38.345Z,75.34
2022-09-16T21:29:09.809Z,74.97
2022-09-16T21:31:38.890Z,76.74
2022-09-16T21:34:12.469Z,76.35
2022-09-16T21:36:40.328Z,76.00
2022-09-16T21:39:08.448Z,74.77
2022-09-16T21:41:36.463Z,75.86
2022-09-16T21:44:05.233Z,75.38
2022-09-16T21:46:39.475Z,75.92
2022-09-16T21:49:14.421Z,77.34
2022-09-16T21:51:42.113Z,77.86
2022-09-16T21:54:11.013Z,76.84
2022-09-16T21:56:40.005Z,78.88
2022-09-16T21:59:08.717Z,79.23
2022-09-16T22:01:38.203Z,79.89
2022-09-16T22:04:11.593Z,80.74
2022-09-16T22:06:39.356Z,80.54
2022-09-16T22:09:09.297Z,81.19
2022-09-16T22:11:39.458Z,80.43
2022-09-16T22:14:07.705Z,82.17
2022-09-16T22:16:37.844Z,82.37
2022-09-16T22:19:07.801Z,83.37
2022-09-16T22:21:40.002Z,83.55
2022-09-16T22:24:08.544Z,83.20
2022-09-16T22:26:37.039Z,83.39
2022-09-16T22:29:06.168Z,82.88
2022-09-16T22:31:35.148Z,82.92
2022-09-16T22:34:03.353Z,81.92
2022-09-16T22:36:32.498Z,81.22
2022-09-16T22:39:06.217Z,80.47
2022-09-16T22:41:34.960Z,81.68
2022-09-16T22:44:03.465Z,81.79
2022-09-16T22:46:33.617Z,81.10
2022-09-16T22:49:01.962Z,81.98
2022-09-16T22:51:29.962Z,83.51
2022-09-16T22:53:57.794Z,84.50
2022-09-16T22:56:29.326Z,85.93
2022-09-16T22:58:58.038Z,87.69
2022-09-16T23:01:27.481Z,86.97
2022-09-16T23:03:57.364Z,87.48
2022-09-16T23:06:26.570Z,89.97
2022-09-16T23:08:54.747Z,88.34
2022-09-16T23:11:24.647Z,88.95
2022-09-16T23:13:54.745Z,88.56
2022-09-16T23:16:24.473Z,89.26
2022-09-16T23:18:52.203Z,89.13
2022-09-16T23:21:22.878Z,87.21
2022-09-16T23:23:53.049Z,86.70
2022-09-16T23:26:22.966Z,88.10
2022-09-16T23:28:54.337Z,89.17
2022-09-16T23:31:24.345Z,88.50
2022-09-16T23:33:52.482Z,88.09
2022-09-16T23:36:21.198Z,88.44
2022-09-16T23:38:49.333Z,87.22
2022-09-16T23:41:19.726Z,89.25
2022-09-16T23:43:48.858Z,86.40
2022-09-16T23:46:21.117Z,86.97
2022-09-16T23:48:51.061Z,87.71
2022-09-16T23:51:22.605Z,88.86
2022-09-16T23:53:54.016Z,89.94
2022-09-16T23:56:22.244Z,91.08
2022-09-16T23:58:50.410Z,90.62
